EDW229F GCRR-LSZH
Flight info
| Callsign | EDW229F |
|---|---|
| Flight time | 3h 26m |
| Altitude | 36000 |
| Route | KORAL UN871 SONSO DCT NIRAL/N0432F380 UN871 ADUBI DCT VJF DCT MAR DCT ALCOL DCT LOGRO DCT ETANA DCT VTB DCT PALIO DCT SEGRE DCT YAKXU DCT RONNY DCT TOPTU DCT TOU DCT GAI DCT MEN DCT NINUN DCT LATAM DCT ETREK DCT LTP DCT SOPLO DCT OMASI DCT KINNI DCT LAMUR DCT KORED/N0402F320 N871 BERSU |
| Aircraft | A320/M-SDE3FGHIRWY/LB1 |
Departure
| Time | 2026-05-05 14:59 |
|---|---|
| Airport | César Manrique-Lanzarote Airport (GCRR) |
Arrival
| Time | 2026-05-05 18:25 |
|---|---|
| Airport | Zürich Airport (LSZH) |
| Time | Latitude | Longitude | Altitude | Speed | Heading |
|---|---|---|---|---|---|
| 2026-05-05 14:28 | 28.95058 | -13.60730 | 48 ft | 0 kts | 296° |
| 2026-05-05 14:49 | 28.95056 | -13.60726 | 50 ft | 3 kts | 296° |
| 2026-05-05 14:49 | 28.95045 | -13.60699 | 50 ft | 4 kts | 296° |
| 2026-05-05 14:50 | 28.95033 | -13.60672 | 49 ft | 2 kts | 296° |
| 2026-05-05 14:50 | 28.95025 | -13.60649 | 48 ft | 4 kts | 268° |
| 2026-05-05 14:50 | 28.95034 | -13.60625 | 49 ft | 4 kts | 214° |
| 2026-05-05 14:50 | 28.95048 | -13.60616 | 49 ft | 0 kts | 206° |
| 2026-05-05 14:53 | 28.95047 | -13.60616 | 49 ft | 0 kts | 206° |
| 2026-05-05 14:53 | 28.95033 | -13.60624 | 47 ft | 3 kts | 206° |
| 2026-05-05 14:53 | 28.95000 | -13.60643 | 50 ft | 7 kts | 206° |
| 2026-05-05 14:53 | 28.94947 | -13.60672 | 50 ft | 9 kts | 206° |
| 2026-05-05 14:54 | 28.94902 | -13.60659 | 49 ft | 7 kts | 127° |
| 2026-05-05 14:54 | 28.94878 | -13.60599 | 47 ft | 10 kts | 115° |
| 2026-05-05 14:54 | 28.94823 | -13.60572 | 50 ft | 10 kts | 205° |
| 2026-05-05 14:54 | 28.94756 | -13.60610 | 50 ft | 13 kts | 205° |
| 2026-05-05 14:55 | 28.94659 | -13.60664 | 48 ft | 19 kts | 207° |
| 2026-05-05 14:55 | 28.94529 | -13.60739 | 38 ft | 23 kts | 206° |
| 2026-05-05 14:55 | 28.94381 | -13.60823 | 31 ft | 24 kts | 206° |
| 2026-05-05 14:55 | 28.94230 | -13.60908 | 28 ft | 24 kts | 206° |
| 2026-05-05 14:56 | 28.94086 | -13.60997 | 26 ft | 23 kts | 207° |
| 2026-05-05 14:56 | 28.93993 | -13.61050 | 25 ft | 22 kts | 207° |
| 2026-05-05 14:56 | 28.93858 | -13.61128 | 24 ft | 21 kts | 207° |
| 2026-05-05 14:56 | 28.93732 | -13.61201 | 24 ft | 19 kts | 207° |
| 2026-05-05 14:57 | 28.93659 | -13.61214 | 25 ft | 10 kts | 150° |
| 2026-05-05 14:57 | 28.93617 | -13.61134 | 25 ft | 14 kts | 115° |
| 2026-05-05 14:57 | 28.93602 | -13.61063 | 24 ft | 5 kts | 39° |
| 2026-05-05 14:57 | 28.93630 | -13.61048 | 25 ft | 0 kts | 25° |
| 2026-05-05 14:58 | 28.93641 | -13.61042 | 25 ft | 12 kts | 25° |
| 2026-05-05 14:58 | 28.93960 | -13.60861 | 29 ft | 86 kts | 26° |
| 2026-05-05 14:58 | 28.94673 | -13.60439 | 42 ft | 142 kts | 29° |
| 2026-05-05 14:58 | 28.95552 | -13.59880 | 634 ft | 144 kts | 35° |
| 2026-05-05 14:59 | 28.96385 | -13.59231 | 1360 ft | 145 kts | 39° |
| 2026-05-05 14:59 | 28.97243 | -13.58478 | 1756 ft | 167 kts | 39° |
| 2026-05-05 14:59 | 28.98236 | -13.57630 | 2089 ft | 190 kts | 37° |
| 2026-05-05 14:59 | 28.99369 | -13.56682 | 2356 ft | 215 kts | 36° |
| 2026-05-05 15:00 | 29.00645 | -13.55622 | 2831 ft | 237 kts | 37° |
| 2026-05-05 15:00 | 29.01480 | -13.54756 | 3227 ft | 249 kts | 45° |
| 2026-05-05 15:00 | 29.03016 | -13.52684 | 4237 ft | 263 kts | 50° |
| 2026-05-05 15:00 | 29.04140 | -13.51020 | 5048 ft | 269 kts | 49° |
| 2026-05-05 15:01 | 29.05299 | -13.49295 | 5797 ft | 278 kts | 50° |
| 2026-05-05 15:01 | 29.06505 | -13.47528 | 6555 ft | 286 kts | 50° |
| 2026-05-05 15:01 | 29.07762 | -13.45717 | 7289 ft | 294 kts | 50° |
| 2026-05-05 15:01 | 29.09059 | -13.43881 | 8059 ft | 300 kts | 47° |
| 2026-05-05 15:02 | 29.10678 | -13.42386 | 8796 ft | 302 kts | 24° |
| 2026-05-05 15:02 | 29.12591 | -13.41358 | 9574 ft | 307 kts | 21° |
| 2026-05-05 15:02 | 29.14560 | -13.40329 | 10291 ft | 314 kts | 20° |
| 2026-05-05 15:02 | 29.16613 | -13.39261 | 10607 ft | 337 kts | 21° |
| 2026-05-05 15:03 | 29.18807 | -13.38114 | 10980 ft | 354 kts | 21° |
| 2026-05-05 15:03 | 29.21038 | -13.36933 | 11601 ft | 361 kts | 21° |
| 2026-05-05 15:03 | 29.23336 | -13.35707 | 11964 ft | 366 kts | 21° |
| 2026-05-05 15:03 | 29.25607 | -13.34366 | 12042 ft | 370 kts | 29° |
| 2026-05-05 15:04 | 29.27630 | -13.32541 | 12062 ft | 373 kts | 43° |
| 2026-05-05 15:04 | 29.29298 | -13.30246 | 12061 ft | 375 kts | 54° |
| 2026-05-05 15:04 | 29.30784 | -13.27793 | 12048 ft | 375 kts | 54° |
| 2026-05-05 15:04 | 29.32282 | -13.25335 | 12048 ft | 375 kts | 53° |
| 2026-05-05 15:05 | 29.35290 | -13.20413 | 12610 ft | 380 kts | 53° |
| 2026-05-05 15:05 | 29.36813 | -13.17917 | 13356 ft | 385 kts | 53° |
| 2026-05-05 15:05 | 29.38357 | -13.15385 | 14012 ft | 390 kts | 53° |
| 2026-05-05 15:06 | 29.39925 | -13.12816 | 14583 ft | 396 kts | 53° |
| 2026-05-05 15:06 | 29.41515 | -13.10204 | 15152 ft | 402 kts | 53° |
| 2026-05-05 15:06 | 29.43125 | -13.07551 | 15726 ft | 408 kts | 53° |
| 2026-05-05 15:06 | 29.44756 | -13.04863 | 16294 ft | 413 kts | 53° |
| 2026-05-05 15:07 | 29.46410 | -13.02141 | 16874 ft | 418 kts | 52° |
| 2026-05-05 15:07 | 29.48084 | -12.99386 | 17490 ft | 423 kts | 53° |
| 2026-05-05 15:07 | 29.49771 | -12.96606 | 18098 ft | 426 kts | 53° |
| 2026-05-05 15:07 | 29.51474 | -12.93796 | 18629 ft | 431 kts | 53° |
| 2026-05-05 15:08 | 29.53199 | -12.90947 | 19122 ft | 436 kts | 53° |
| 2026-05-05 15:08 | 29.54933 | -12.88078 | 19614 ft | 441 kts | 53° |
| 2026-05-05 15:08 | 29.56689 | -12.85168 | 20112 ft | 445 kts | 53° |
| 2026-05-05 15:08 | 29.58460 | -12.82229 | 20603 ft | 450 kts | 53° |
| 2026-05-05 15:09 | 29.60230 | -12.79291 | 21077 ft | 454 kts | 53° |
| 2026-05-05 15:09 | 29.62039 | -12.76291 | 21553 ft | 459 kts | 53° |
| 2026-05-05 15:09 | 29.63867 | -12.73264 | 22014 ft | 464 kts | 53° |
| 2026-05-05 15:09 | 29.65718 | -12.70200 | 22502 ft | 469 kts | 53° |
| 2026-05-05 15:10 | 29.67584 | -12.67104 | 22997 ft | 473 kts | 53° |
| 2026-05-05 15:10 | 29.69466 | -12.63978 | 23481 ft | 477 kts | 53° |
| 2026-05-05 15:10 | 29.71362 | -12.60822 | 23894 ft | 482 kts | 53° |
| 2026-05-05 15:10 | 29.73276 | -12.57632 | 24290 ft | 485 kts | 53° |
| 2026-05-05 15:11 | 29.75193 | -12.54422 | 24688 ft | 488 kts | 53° |
| 2026-05-05 15:11 | 29.77109 | -12.51189 | 25073 ft | 492 kts | 53° |
| 2026-05-05 15:11 | 29.79037 | -12.47916 | 25443 ft | 495 kts | 54° |
| 2026-05-05 15:11 | 29.80973 | -12.44624 | 25864 ft | 498 kts | 53° |
| 2026-05-05 15:12 | 29.82928 | -12.41304 | 26161 ft | 503 kts | 53° |
| 2026-05-05 15:12 | 29.84894 | -12.37966 | 26521 ft | 506 kts | 53° |
| 2026-05-05 15:12 | 29.86880 | -12.34599 | 26899 ft | 508 kts | 53° |
| 2026-05-05 15:12 | 29.88876 | -12.31215 | 27246 ft | 511 kts | 53° |
| 2026-05-05 15:13 | 29.90878 | -12.27818 | 27594 ft | 514 kts | 53° |
| 2026-05-05 15:13 | 29.92863 | -12.24446 | 27923 ft | 517 kts | 53° |
| 2026-05-05 15:13 | 29.94886 | -12.21008 | 28264 ft | 519 kts | 53° |
| 2026-05-05 15:13 | 29.96918 | -12.17549 | 28594 ft | 522 kts | 53° |
| 2026-05-05 15:14 | 29.98958 | -12.14068 | 28906 ft | 525 kts | 53° |
| 2026-05-05 15:14 | 30.01094 | -12.10647 | 29207 ft | 525 kts | 47° |
| 2026-05-05 15:14 | 30.03570 | -12.07561 | 29522 ft | 523 kts | 39° |
| 2026-05-05 15:14 | 30.06204 | -12.04648 | 29829 ft | 526 kts | 39° |
| 2026-05-05 15:15 | 30.08847 | -12.01713 | 30107 ft | 528 kts | 38° |
| 2026-05-05 15:15 | 30.11496 | -11.98756 | 30359 ft | 531 kts | 39° |
| 2026-05-05 15:15 | 30.14150 | -11.95775 | 30606 ft | 533 kts | 39° |
| 2026-05-05 15:15 | 30.16811 | -11.92777 | 30843 ft | 535 kts | 39° |
| 2026-05-05 15:16 | 30.19482 | -11.89765 | 31085 ft | 537 kts | 39° |
| 2026-05-05 15:16 | 30.22166 | -11.86745 | 31313 ft | 539 kts | 39° |
| 2026-05-05 15:16 | 30.24861 | -11.83716 | 31561 ft | 541 kts | 39° |
| 2026-05-05 15:16 | 30.27556 | -11.80686 | 31878 ft | 540 kts | 39° |
| 2026-05-05 15:17 | 30.30253 | -11.77649 | 32204 ft | 540 kts | 39° |
| 2026-05-05 15:17 | 30.32937 | -11.74625 | 32510 ft | 540 kts | 39° |
| 2026-05-05 15:17 | 30.35626 | -11.71594 | 32817 ft | 539 kts | 39° |
| 2026-05-05 15:17 | 30.38316 | -11.68564 | 33115 ft | 539 kts | 38° |
| 2026-05-05 15:18 | 30.41006 | -11.65535 | 33434 ft | 539 kts | 38° |
| 2026-05-05 15:18 | 30.43702 | -11.62500 | 33768 ft | 539 kts | 38° |
| 2026-05-05 15:18 | 30.46382 | -11.59477 | 34092 ft | 539 kts | 38° |
| 2026-05-05 15:18 | 30.49033 | -11.56474 | 34364 ft | 539 kts | 38° |
| 2026-05-05 15:19 | 30.51707 | -11.53434 | 34637 ft | 538 kts | 38° |
| 2026-05-05 15:19 | 30.54376 | -11.50398 | 34909 ft | 537 kts | 38° |
| 2026-05-05 15:19 | 30.57043 | -11.47367 | 35173 ft | 536 kts | 38° |
| 2026-05-05 15:19 | 30.59713 | -11.44334 | 35428 ft | 535 kts | 38° |
| 2026-05-05 15:20 | 30.62375 | -11.41314 | 35678 ft | 535 kts | 38° |
| 2026-05-05 15:20 | 30.65029 | -11.38302 | 35914 ft | 534 kts | 38° |
| 2026-05-05 15:20 | 30.67689 | -11.35277 | 36024 ft | 533 kts | 38° |
| 2026-05-05 15:21 | 30.72937 | -11.29282 | 36034 ft | 527 kts | 38° |
| 2026-05-05 15:21 | 30.78169 | -11.23308 | 36028 ft | 527 kts | 38° |
| 2026-05-05 15:22 | 30.83403 | -11.17327 | 36047 ft | 528 kts | 38° |
| 2026-05-05 15:22 | 30.88638 | -11.11338 | 36041 ft | 528 kts | 38° |
| 2026-05-05 15:23 | 30.93873 | -11.05342 | 36047 ft | 528 kts | 38° |
| 2026-05-05 15:23 | 30.99104 | -10.99331 | 36046 ft | 528 kts | 38° |
| 2026-05-05 15:24 | 31.04298 | -10.93350 | 36038 ft | 528 kts | 38° |
| 2026-05-05 15:24 | 31.09521 | -10.87324 | 36067 ft | 528 kts | 38° |
| 2026-05-05 15:25 | 31.14734 | -10.81296 | 36055 ft | 527 kts | 38° |
| 2026-05-05 15:25 | 31.19949 | -10.75267 | 36052 ft | 528 kts | 38° |
| 2026-05-05 15:26 | 31.25168 | -10.69236 | 36049 ft | 528 kts | 38° |
| 2026-05-05 15:26 | 31.30383 | -10.63195 | 36051 ft | 528 kts | 38° |
| 2026-05-05 15:27 | 31.35585 | -10.57145 | 36030 ft | 528 kts | 38° |
| 2026-05-05 15:27 | 31.40786 | -10.51082 | 36075 ft | 527 kts | 39° |
| 2026-05-05 15:28 | 31.45988 | -10.45018 | 36069 ft | 527 kts | 39° |
| 2026-05-05 15:28 | 31.51171 | -10.38965 | 36061 ft | 526 kts | 39° |
| 2026-05-05 15:29 | 31.56327 | -10.32939 | 36065 ft | 526 kts | 39° |
| 2026-05-05 15:29 | 31.61505 | -10.26868 | 36056 ft | 526 kts | 39° |
| 2026-05-05 15:30 | 31.66681 | -10.20794 | 36096 ft | 526 kts | 39° |
| 2026-05-05 15:30 | 31.71852 | -10.14723 | 36077 ft | 525 kts | 39° |
| 2026-05-05 15:31 | 31.77004 | -10.08650 | 36071 ft | 524 kts | 39° |
| 2026-05-05 15:31 | 31.82146 | -10.02580 | 36072 ft | 524 kts | 39° |
| 2026-05-05 15:32 | 31.87286 | -9.96502 | 36065 ft | 523 kts | 39° |
| 2026-05-05 15:32 | 31.92419 | -9.90434 | 36066 ft | 523 kts | 39° |
| 2026-05-05 15:33 | 31.97545 | -9.84360 | 36098 ft | 522 kts | 40° |
| 2026-05-05 15:33 | 32.02638 | -9.78306 | 36062 ft | 519 kts | 40° |
| 2026-05-05 15:34 | 32.07714 | -9.72257 | 36057 ft | 519 kts | 40° |
| 2026-05-05 15:34 | 32.12763 | -9.66241 | 36055 ft | 519 kts | 40° |
| 2026-05-05 15:35 | 32.17837 | -9.60185 | 36057 ft | 519 kts | 40° |
| 2026-05-05 15:35 | 32.22906 | -9.54120 | 36057 ft | 519 kts | 40° |
| 2026-05-05 15:36 | 32.27979 | -9.48048 | 36094 ft | 518 kts | 40° |
| 2026-05-05 15:36 | 32.33020 | -9.42003 | 36069 ft | 516 kts | 40° |
| 2026-05-05 15:37 | 32.38056 | -9.35964 | 36064 ft | 515 kts | 40° |
| 2026-05-05 15:37 | 32.43080 | -9.29919 | 36063 ft | 515 kts | 40° |
| 2026-05-05 15:38 | 32.48095 | -9.23864 | 36057 ft | 515 kts | 40° |
| 2026-05-05 15:38 | 32.53109 | -9.17809 | 36060 ft | 515 kts | 40° |
| 2026-05-05 15:39 | 32.58085 | -9.11798 | 36068 ft | 509 kts | 41° |
| 2026-05-05 15:39 | 32.62999 | -9.05828 | 36057 ft | 504 kts | 41° |
| 2026-05-05 15:40 | 32.67897 | -8.99877 | 36054 ft | 504 kts | 41° |
| 2026-05-05 15:40 | 32.72799 | -8.93924 | 36048 ft | 504 kts | 41° |
| 2026-05-05 15:41 | 32.77700 | -8.87961 | 36055 ft | 504 kts | 41° |
| 2026-05-05 15:41 | 32.82603 | -8.81993 | 36059 ft | 504 kts | 41° |
| 2026-05-05 15:42 | 32.87494 | -8.76012 | 36104 ft | 503 kts | 41° |
| 2026-05-05 15:42 | 32.92360 | -8.70047 | 36084 ft | 501 kts | 41° |
| 2026-05-05 15:43 | 32.97210 | -8.64100 | 36079 ft | 500 kts | 41° |
| 2026-05-05 15:43 | 33.02047 | -8.58155 | 36079 ft | 499 kts | 41° |
| 2026-05-05 15:44 | 33.06882 | -8.52215 | 36078 ft | 499 kts | 41° |
| 2026-05-05 15:44 | 33.10903 | -8.47269 | 36078 ft | 499 kts | 41° |
| 2026-05-05 15:45 | 33.15720 | -8.41312 | 36072 ft | 498 kts | 42° |
| 2026-05-05 15:45 | 33.21696 | -8.34996 | 36071 ft | 488 kts | 26° |
| 2026-05-05 15:46 | 33.26323 | -8.31535 | 36096 ft | 490 kts | 25° |
| 2026-05-05 15:46 | 33.29215 | -8.29362 | 36228 ft | 493 kts | 26° |
| 2026-05-05 15:46 | 33.32085 | -8.27195 | 36364 ft | 495 kts | 26° |
| 2026-05-05 15:46 | 33.35006 | -8.24983 | 36564 ft | 496 kts | 26° |
| 2026-05-05 15:47 | 33.37922 | -8.22773 | 36781 ft | 496 kts | 26° |
| 2026-05-05 15:47 | 33.40837 | -8.20568 | 37001 ft | 496 kts | 26° |
| 2026-05-05 15:47 | 33.43746 | -8.18369 | 37327 ft | 493 kts | 26° |
| 2026-05-05 15:47 | 33.46634 | -8.16186 | 37600 ft | 491 kts | 26° |
| 2026-05-05 15:48 | 33.49523 | -8.14004 | 37815 ft | 491 kts | 26° |
| 2026-05-05 15:48 | 33.52409 | -8.11822 | 38007 ft | 490 kts | 26° |
| 2026-05-05 15:48 | 33.55296 | -8.09636 | 38070 ft | 491 kts | 26° |
| 2026-05-05 15:49 | 33.61073 | -8.05249 | 38069 ft | 491 kts | 26° |
| 2026-05-05 15:49 | 33.66834 | -8.00873 | 38060 ft | 491 kts | 26° |
| 2026-05-05 15:50 | 33.72589 | -7.96488 | 38051 ft | 488 kts | 27° |
| 2026-05-05 15:50 | 33.78301 | -7.92121 | 38068 ft | 486 kts | 27° |
| 2026-05-05 15:51 | 33.84011 | -7.87761 | 38066 ft | 486 kts | 27° |
| 2026-05-05 15:51 | 33.89732 | -7.83391 | 38081 ft | 487 kts | 27° |
| 2026-05-05 15:52 | 33.95404 | -7.79043 | 38076 ft | 486 kts | 27° |
| 2026-05-05 15:52 | 34.01095 | -7.74674 | 38089 ft | 482 kts | 28° |
| 2026-05-05 15:53 | 34.06747 | -7.70324 | 38084 ft | 481 kts | 28° |
| 2026-05-05 15:53 | 34.12387 | -7.65986 | 38092 ft | 480 kts | 28° |
| 2026-05-05 15:54 | 34.18019 | -7.61645 | 38092 ft | 480 kts | 28° |
| 2026-05-05 15:54 | 34.23649 | -7.57303 | 38064 ft | 480 kts | 27° |
| 2026-05-05 15:55 | 34.29238 | -7.52980 | 38103 ft | 479 kts | 28° |
| 2026-05-05 15:55 | 34.34848 | -7.48629 | 38099 ft | 478 kts | 28° |
| 2026-05-05 15:56 | 34.40441 | -7.44274 | 38094 ft | 477 kts | 28° |
| 2026-05-05 15:56 | 34.46029 | -7.39930 | 38092 ft | 477 kts | 28° |
| 2026-05-05 15:57 | 34.51609 | -7.35592 | 38111 ft | 476 kts | 29° |
| 2026-05-05 15:57 | 34.57179 | -7.31246 | 38092 ft | 475 kts | 28° |
| 2026-05-05 15:58 | 34.62735 | -7.26901 | 38091 ft | 475 kts | 28° |
| 2026-05-05 15:58 | 34.68290 | -7.22554 | 38089 ft | 474 kts | 29° |
| 2026-05-05 15:59 | 34.73831 | -7.18202 | 38081 ft | 474 kts | 29° |
| 2026-05-05 15:59 | 34.79342 | -7.13870 | 38103 ft | 474 kts | 29° |
| 2026-05-05 16:00 | 34.84890 | -7.09513 | 38093 ft | 474 kts | 29° |
| 2026-05-05 16:00 | 34.90423 | -7.05159 | 38087 ft | 473 kts | 29° |
| 2026-05-05 16:01 | 34.95950 | -7.00797 | 38089 ft | 473 kts | 29° |
| 2026-05-05 16:01 | 35.01477 | -6.96432 | 38084 ft | 473 kts | 29° |
| 2026-05-05 16:02 | 35.06997 | -6.92059 | 38094 ft | 473 kts | 29° |
| 2026-05-05 16:02 | 35.12516 | -6.87685 | 38085 ft | 473 kts | 29° |
| 2026-05-05 16:03 | 35.18031 | -6.83306 | 38071 ft | 473 kts | 29° |
| 2026-05-05 16:03 | 35.23544 | -6.78916 | 38067 ft | 473 kts | 29° |
| 2026-05-05 16:04 | 35.29057 | -6.74521 | 38063 ft | 473 kts | 29° |
| 2026-05-05 16:04 | 35.34571 | -6.70123 | 38069 ft | 473 kts | 29° |
| 2026-05-05 16:05 | 35.40117 | -6.65784 | 38057 ft | 473 kts | 28° |
| 2026-05-05 16:05 | 35.45703 | -6.61528 | 38054 ft | 473 kts | 28° |
| 2026-05-05 16:06 | 35.51257 | -6.57286 | 38049 ft | 473 kts | 28° |
| 2026-05-05 16:06 | 35.56826 | -6.52987 | 38041 ft | 473 kts | 28° |
| 2026-05-05 16:07 | 35.62388 | -6.48673 | 38058 ft | 473 kts | 28° |
| 2026-05-05 16:07 | 35.67941 | -6.44354 | 38042 ft | 473 kts | 28° |
| 2026-05-05 16:08 | 35.73505 | -6.40037 | 38039 ft | 473 kts | 28° |
| 2026-05-05 16:08 | 35.79070 | -6.35715 | 38033 ft | 473 kts | 28° |
| 2026-05-05 16:09 | 35.84635 | -6.31358 | 38034 ft | 474 kts | 29° |
| 2026-05-05 16:09 | 35.90090 | -6.26775 | 38046 ft | 475 kts | 31° |
| 2026-05-05 16:10 | 35.95494 | -6.22047 | 38047 ft | 475 kts | 31° |
| 2026-05-05 16:10 | 36.00862 | -6.17380 | 38048 ft | 475 kts | 31° |
| 2026-05-05 16:11 | 36.06288 | -6.12725 | 38048 ft | 475 kts | 31° |
| 2026-05-05 16:12 | 36.17146 | -6.03418 | 38043 ft | 475 kts | 31° |
| 2026-05-05 16:13 | 36.29803 | -5.90223 | 38019 ft | 480 kts | 42° |
| 2026-05-05 16:13 | 36.34495 | -5.84332 | 38013 ft | 480 kts | 42° |
| 2026-05-05 16:14 | 36.43882 | -5.72535 | 38009 ft | 480 kts | 42° |
| 2026-05-05 16:15 | 36.53270 | -5.60706 | 37987 ft | 481 kts | 42° |
| 2026-05-05 16:16 | 36.62657 | -5.48838 | 38011 ft | 481 kts | 42° |
| 2026-05-05 16:17 | 36.69645 | -5.39954 | 37996 ft | 481 kts | 42° |
| 2026-05-05 16:18 | 36.76664 | -5.31011 | 37959 ft | 481 kts | 42° |
| 2026-05-05 16:19 | 36.83676 | -5.22058 | 37957 ft | 482 kts | 42° |
| 2026-05-05 16:19 | 36.90699 | -5.13069 | 37975 ft | 482 kts | 42° |
| 2026-05-05 16:20 | 37.00071 | -5.01035 | 37959 ft | 483 kts | 42° |
| 2026-05-05 16:21 | 37.04924 | -4.95278 | 37953 ft | 477 kts | 31° |
| 2026-05-05 16:22 | 37.13598 | -4.89791 | 37971 ft | 466 kts | 16° |
| 2026-05-05 16:23 | 37.25579 | -4.83552 | 37956 ft | 466 kts | 16° |
| 2026-05-05 16:23 | 37.34560 | -4.78840 | 37952 ft | 467 kts | 16° |
| 2026-05-05 16:24 | 37.40549 | -4.75686 | 37986 ft | 466 kts | 16° |
| 2026-05-05 16:25 | 37.49526 | -4.70972 | 37975 ft | 465 kts | 16° |
| 2026-05-05 16:25 | 37.58483 | -4.66251 | 37966 ft | 465 kts | 16° |
| 2026-05-05 16:26 | 37.70415 | -4.59931 | 37975 ft | 464 kts | 16° |
| 2026-05-05 16:27 | 37.76378 | -4.56772 | 37967 ft | 464 kts | 15° |
| 2026-05-05 16:27 | 37.82332 | -4.53613 | 37959 ft | 464 kts | 16° |
| 2026-05-05 16:28 | 37.88277 | -4.50447 | 37978 ft | 464 kts | 15° |
| 2026-05-05 16:28 | 37.94237 | -4.47270 | 37944 ft | 463 kts | 15° |
| 2026-05-05 16:29 | 38.00136 | -4.44122 | 37946 ft | 464 kts | 15° |
| 2026-05-05 16:29 | 38.06094 | -4.40945 | 37948 ft | 464 kts | 15° |
| 2026-05-05 16:30 | 38.12037 | -4.37763 | 37978 ft | 464 kts | 15° |
| 2026-05-05 16:30 | 38.17992 | -4.34559 | 37967 ft | 465 kts | 15° |
| 2026-05-05 16:31 | 38.23946 | -4.31353 | 37969 ft | 465 kts | 15° |
| 2026-05-05 16:31 | 38.29916 | -4.28138 | 37963 ft | 465 kts | 15° |
| 2026-05-05 16:32 | 38.35880 | -4.24920 | 37959 ft | 465 kts | 15° |
| 2026-05-05 16:32 | 38.41838 | -4.21698 | 37962 ft | 466 kts | 15° |
| 2026-05-05 16:33 | 38.46794 | -4.19011 | 37962 ft | 465 kts | 15° |
| 2026-05-05 16:33 | 38.52755 | -4.15781 | 37957 ft | 465 kts | 15° |
| 2026-05-05 16:34 | 38.58716 | -4.12538 | 37998 ft | 466 kts | 15° |
| 2026-05-05 16:34 | 38.64678 | -4.09292 | 37972 ft | 465 kts | 16° |
| 2026-05-05 16:35 | 38.70640 | -4.06046 | 37961 ft | 466 kts | 16° |
| 2026-05-05 16:35 | 38.76605 | -4.02783 | 37958 ft | 466 kts | 16° |
| 2026-05-05 16:36 | 38.82569 | -3.99517 | 37993 ft | 466 kts | 16° |
| 2026-05-05 16:36 | 38.88530 | -3.96252 | 37976 ft | 465 kts | 16° |
| 2026-05-05 16:37 | 38.94442 | -3.93001 | 37975 ft | 465 kts | 16° |
| 2026-05-05 16:37 | 39.00391 | -3.89724 | 37970 ft | 465 kts | 16° |
| 2026-05-05 16:38 | 39.06338 | -3.86445 | 38002 ft | 464 kts | 16° |
| 2026-05-05 16:38 | 39.12260 | -3.83173 | 37953 ft | 462 kts | 16° |
| 2026-05-05 16:39 | 39.18173 | -3.79900 | 37943 ft | 463 kts | 15° |
| 2026-05-05 16:39 | 39.24095 | -3.76615 | 37941 ft | 463 kts | 15° |
| 2026-05-05 16:40 | 39.30011 | -3.73338 | 37982 ft | 463 kts | 16° |
| 2026-05-05 16:40 | 39.35911 | -3.70057 | 37951 ft | 464 kts | 16° |
| 2026-05-05 16:41 | 39.41839 | -3.66753 | 37947 ft | 464 kts | 16° |
| 2026-05-05 16:41 | 39.47770 | -3.63449 | 37947 ft | 464 kts | 16° |
| 2026-05-05 16:42 | 39.53702 | -3.60132 | 37979 ft | 465 kts | 16° |
| 2026-05-05 16:42 | 39.59633 | -3.56792 | 37968 ft | 465 kts | 17° |
| 2026-05-05 16:43 | 39.65526 | -3.53474 | 37966 ft | 465 kts | 16° |
| 2026-05-05 16:43 | 39.71493 | -3.50114 | 37965 ft | 465 kts | 16° |
| 2026-05-05 16:44 | 39.77386 | -3.46749 | 37980 ft | 467 kts | 20° |
| 2026-05-05 16:44 | 39.82957 | -3.42228 | 37976 ft | 474 kts | 27° |
| 2026-05-05 16:45 | 39.88459 | -3.37493 | 37965 ft | 474 kts | 27° |
| 2026-05-05 16:45 | 39.93964 | -3.32759 | 37967 ft | 474 kts | 27° |
| 2026-05-05 16:46 | 39.99472 | -3.28019 | 37993 ft | 474 kts | 27° |
| 2026-05-05 16:46 | 40.04960 | -3.23290 | 37991 ft | 474 kts | 27° |
| 2026-05-05 16:47 | 40.10451 | -3.18539 | 37967 ft | 473 kts | 27° |
| 2026-05-05 16:47 | 40.15898 | -3.13812 | 37965 ft | 473 kts | 28° |
| 2026-05-05 16:48 | 40.21375 | -3.09043 | 37980 ft | 473 kts | 28° |
| 2026-05-05 16:48 | 40.26867 | -3.04267 | 37975 ft | 473 kts | 28° |
| 2026-05-05 16:49 | 40.32348 | -2.99501 | 37958 ft | 473 kts | 28° |
| 2026-05-05 16:49 | 40.37829 | -2.94718 | 37949 ft | 473 kts | 28° |
| 2026-05-05 16:50 | 40.43303 | -2.89906 | 37945 ft | 474 kts | 28° |
| 2026-05-05 16:50 | 40.48783 | -2.85092 | 37962 ft | 474 kts | 28° |
| 2026-05-05 16:51 | 40.54267 | -2.80277 | 37959 ft | 474 kts | 28° |
| 2026-05-05 16:51 | 40.59741 | -2.75451 | 37952 ft | 474 kts | 28° |
| 2026-05-05 16:52 | 40.65220 | -2.70608 | 37962 ft | 474 kts | 28° |
| 2026-05-05 16:52 | 40.70683 | -2.65774 | 37952 ft | 474 kts | 29° |
| 2026-05-05 16:53 | 40.76161 | -2.60920 | 37945 ft | 475 kts | 29° |
| 2026-05-05 16:53 | 40.81618 | -2.56081 | 37955 ft | 475 kts | 29° |
| 2026-05-05 16:54 | 40.87110 | -2.51200 | 37955 ft | 476 kts | 29° |
| 2026-05-05 16:54 | 40.92592 | -2.46309 | 37990 ft | 476 kts | 30° |
| 2026-05-05 16:55 | 40.98077 | -2.41398 | 37983 ft | 476 kts | 30° |
| 2026-05-05 16:55 | 41.03543 | -2.36438 | 37977 ft | 477 kts | 32° |
| 2026-05-05 16:56 | 41.08798 | -2.31036 | 37971 ft | 479 kts | 35° |
| 2026-05-05 16:56 | 41.13920 | -2.25380 | 37977 ft | 479 kts | 36° |
| 2026-05-05 16:57 | 41.19071 | -2.19764 | 37970 ft | 479 kts | 35° |
| 2026-05-05 16:57 | 41.24264 | -2.14230 | 37961 ft | 478 kts | 35° |
| 2026-05-05 16:58 | 41.29468 | -2.08712 | 37953 ft | 478 kts | 35° |
| 2026-05-05 16:58 | 41.34662 | -2.03171 | 37979 ft | 478 kts | 35° |
| 2026-05-05 16:59 | 41.39837 | -1.97603 | 37966 ft | 478 kts | 36° |
| 2026-05-05 16:59 | 41.45012 | -1.92030 | 37961 ft | 477 kts | 35° |
| 2026-05-05 17:00 | 41.50147 | -1.86497 | 37943 ft | 478 kts | 36° |
| 2026-05-05 17:00 | 41.55319 | -1.80908 | 37958 ft | 479 kts | 36° |
| 2026-05-05 17:01 | 41.60495 | -1.75311 | 37957 ft | 479 kts | 36° |
| 2026-05-05 17:01 | 41.65671 | -1.69707 | 37955 ft | 479 kts | 36° |
| 2026-05-05 17:02 | 41.70834 | -1.64093 | 37947 ft | 479 kts | 36° |
| 2026-05-05 17:02 | 41.76007 | -1.58459 | 37947 ft | 479 kts | 36° |
| 2026-05-05 17:03 | 41.81176 | -1.52825 | 37974 ft | 478 kts | 36° |
| 2026-05-05 17:03 | 41.86312 | -1.47193 | 37956 ft | 477 kts | 36° |
| 2026-05-05 17:04 | 41.91449 | -1.41558 | 37941 ft | 477 kts | 36° |
| 2026-05-05 17:04 | 41.96584 | -1.35924 | 37934 ft | 476 kts | 36° |
| 2026-05-05 17:05 | 42.01717 | -1.30273 | 37952 ft | 476 kts | 37° |
| 2026-05-05 17:05 | 42.06802 | -1.24657 | 37944 ft | 476 kts | 37° |
| 2026-05-05 17:06 | 42.11918 | -1.18998 | 37933 ft | 476 kts | 37° |
| 2026-05-05 17:06 | 42.17028 | -1.13353 | 37907 ft | 476 kts | 37° |
| 2026-05-05 17:07 | 42.22140 | -1.07677 | 37937 ft | 476 kts | 37° |
| 2026-05-05 17:07 | 42.27259 | -1.01981 | 37915 ft | 476 kts | 37° |
| 2026-05-05 17:08 | 42.32365 | -0.96287 | 37915 ft | 476 kts | 37° |
| 2026-05-05 17:08 | 42.37479 | -0.90570 | 37910 ft | 476 kts | 37° |
| 2026-05-05 17:09 | 42.42525 | -0.84753 | 37923 ft | 478 kts | 44° |
| 2026-05-05 17:09 | 42.46727 | -0.77774 | 37922 ft | 479 kts | 51° |
| 2026-05-05 17:10 | 42.50768 | -0.70657 | 37905 ft | 480 kts | 51° |
| 2026-05-05 17:10 | 42.54732 | -0.63691 | 37905 ft | 480 kts | 51° |
| 2026-05-05 17:11 | 42.58808 | -0.56508 | 37917 ft | 481 kts | 51° |
| 2026-05-05 17:11 | 42.62878 | -0.49298 | 37939 ft | 481 kts | 51° |
| 2026-05-05 17:12 | 42.66935 | -0.42080 | 37947 ft | 480 kts | 51° |
| 2026-05-05 17:12 | 42.70991 | -0.34866 | 37951 ft | 480 kts | 51° |
| 2026-05-05 17:13 | 42.75038 | -0.27640 | 37958 ft | 480 kts | 51° |
| 2026-05-05 17:13 | 42.79080 | -0.20408 | 37968 ft | 480 kts | 52° |
| 2026-05-05 17:14 | 42.83201 | -0.13272 | 37972 ft | 480 kts | 49° |
| 2026-05-05 17:14 | 42.87470 | -0.06280 | 37968 ft | 479 kts | 49° |
| 2026-05-05 17:15 | 42.91741 | 0.00706 | 37971 ft | 480 kts | 49° |
| 2026-05-05 17:15 | 42.95980 | 0.07763 | 37964 ft | 481 kts | 50° |
| 2026-05-05 17:16 | 43.00200 | 0.14861 | 37968 ft | 481 kts | 50° |
| 2026-05-05 17:16 | 43.04420 | 0.21972 | 38001 ft | 482 kts | 50° |
| 2026-05-05 17:17 | 43.08613 | 0.29037 | 38000 ft | 481 kts | 50° |
| 2026-05-05 17:17 | 43.12860 | 0.36184 | 38002 ft | 481 kts | 50° |
| 2026-05-05 17:18 | 43.17073 | 0.43301 | 37985 ft | 481 kts | 50° |
| 2026-05-05 17:18 | 43.21276 | 0.50424 | 37982 ft | 481 kts | 50° |
| 2026-05-05 17:19 | 43.25452 | 0.57523 | 38000 ft | 481 kts | 50° |
| 2026-05-05 17:19 | 43.29646 | 0.64680 | 37995 ft | 481 kts | 50° |
| 2026-05-05 17:20 | 43.33840 | 0.71844 | 38000 ft | 481 kts | 50° |
| 2026-05-05 17:20 | 43.38033 | 0.78997 | 37974 ft | 480 kts | 50° |
| 2026-05-05 17:21 | 43.41499 | 0.84942 | 37979 ft | 480 kts | 50° |
| 2026-05-05 17:22 | 43.48434 | 0.96884 | 37997 ft | 479 kts | 51° |
| 2026-05-05 17:22 | 43.52582 | 1.04064 | 37988 ft | 478 kts | 51° |
| 2026-05-05 17:23 | 43.56050 | 1.10068 | 37993 ft | 478 kts | 51° |
| 2026-05-05 17:23 | 43.60193 | 1.17241 | 37967 ft | 478 kts | 51° |
| 2026-05-05 17:24 | 43.64329 | 1.24421 | 37989 ft | 478 kts | 51° |
| 2026-05-05 17:24 | 43.68434 | 1.31583 | 37985 ft | 479 kts | 52° |
| 2026-05-05 17:25 | 43.72396 | 1.38832 | 37979 ft | 479 kts | 53° |
| 2026-05-05 17:25 | 43.76308 | 1.46284 | 37978 ft | 479 kts | 54° |
| 2026-05-05 17:26 | 43.80226 | 1.53748 | 37961 ft | 479 kts | 53° |
| 2026-05-05 17:26 | 43.84166 | 1.61190 | 37975 ft | 479 kts | 53° |
| 2026-05-05 17:27 | 43.88114 | 1.68626 | 37972 ft | 479 kts | 53° |
| 2026-05-05 17:27 | 43.92066 | 1.76079 | 37971 ft | 479 kts | 53° |
| 2026-05-05 17:28 | 43.96000 | 1.83540 | 37970 ft | 479 kts | 54° |
| 2026-05-05 17:28 | 43.99807 | 1.91055 | 37953 ft | 479 kts | 55° |
| 2026-05-05 17:29 | 44.03563 | 1.98717 | 37970 ft | 479 kts | 56° |
| 2026-05-05 17:29 | 44.07315 | 2.06351 | 37966 ft | 478 kts | 56° |
| 2026-05-05 17:30 | 44.11094 | 2.13975 | 37965 ft | 478 kts | 55° |
| 2026-05-05 17:30 | 44.14873 | 2.21593 | 37961 ft | 478 kts | 56° |
| 2026-05-05 17:31 | 44.18637 | 2.29222 | 37950 ft | 478 kts | 56° |
| 2026-05-05 17:31 | 44.22404 | 2.36878 | 37962 ft | 478 kts | 56° |
| 2026-05-05 17:32 | 44.26140 | 2.44486 | 37969 ft | 478 kts | 56° |
| 2026-05-05 17:32 | 44.29893 | 2.52158 | 37965 ft | 478 kts | 56° |
| 2026-05-05 17:33 | 44.33634 | 2.59837 | 37961 ft | 478 kts | 56° |
| 2026-05-05 17:33 | 44.37381 | 2.67538 | 37951 ft | 478 kts | 56° |
| 2026-05-05 17:34 | 44.41115 | 2.75241 | 37960 ft | 478 kts | 56° |
| 2026-05-05 17:34 | 44.44843 | 2.82952 | 37958 ft | 478 kts | 56° |
| 2026-05-05 17:35 | 44.48565 | 2.90649 | 37950 ft | 477 kts | 56° |
| 2026-05-05 17:35 | 44.52270 | 2.98354 | 37946 ft | 477 kts | 56° |
| 2026-05-05 17:36 | 44.55974 | 3.06077 | 37926 ft | 476 kts | 56° |
| 2026-05-05 17:36 | 44.59667 | 3.13799 | 37942 ft | 476 kts | 56° |
| 2026-05-05 17:37 | 44.63159 | 3.21517 | 37921 ft | 460 kts | 60° |
| 2026-05-05 17:37 | 44.66197 | 3.29229 | 37924 ft | 446 kts | 62° |
| 2026-05-05 17:38 | 44.69123 | 3.36886 | 37916 ft | 444 kts | 62° |
| 2026-05-05 17:38 | 44.72115 | 3.44477 | 37919 ft | 444 kts | 61° |
| 2026-05-05 17:39 | 44.75149 | 3.52028 | 37914 ft | 443 kts | 61° |
| 2026-05-05 17:39 | 44.78178 | 3.59597 | 37913 ft | 443 kts | 61° |
| 2026-05-05 17:40 | 44.81170 | 3.67148 | 37912 ft | 443 kts | 61° |
| 2026-05-05 17:40 | 44.84162 | 3.74747 | 37912 ft | 443 kts | 62° |
| 2026-05-05 17:41 | 44.87148 | 3.82350 | 37892 ft | 443 kts | 62° |
| 2026-05-05 17:41 | 44.90143 | 3.89958 | 37901 ft | 443 kts | 62° |
| 2026-05-05 17:42 | 44.93109 | 3.97512 | 37919 ft | 443 kts | 62° |
| 2026-05-05 17:42 | 44.96090 | 4.05148 | 37917 ft | 443 kts | 62° |
| 2026-05-05 17:43 | 44.99062 | 4.12772 | 37921 ft | 443 kts | 62° |
| 2026-05-05 17:43 | 45.02032 | 4.20419 | 37915 ft | 443 kts | 62° |
| 2026-05-05 17:44 | 45.04994 | 4.28068 | 37898 ft | 444 kts | 63° |
| 2026-05-05 17:44 | 45.07941 | 4.35690 | 37906 ft | 444 kts | 63° |
| 2026-05-05 17:45 | 45.10906 | 4.43376 | 37920 ft | 444 kts | 63° |
| 2026-05-05 17:45 | 45.13866 | 4.51073 | 37920 ft | 445 kts | 63° |
| 2026-05-05 17:46 | 45.16823 | 4.58790 | 37922 ft | 445 kts | 63° |
| 2026-05-05 17:46 | 45.19759 | 4.66471 | 37895 ft | 445 kts | 63° |
| 2026-05-05 17:47 | 45.22710 | 4.74201 | 37896 ft | 445 kts | 63° |
| 2026-05-05 17:47 | 45.25651 | 4.81949 | 37890 ft | 446 kts | 63° |
| 2026-05-05 17:48 | 45.28590 | 4.89710 | 37916 ft | 446 kts | 63° |
| 2026-05-05 17:48 | 45.31500 | 4.97403 | 37922 ft | 445 kts | 63° |
| 2026-05-05 17:49 | 45.34422 | 5.05141 | 37890 ft | 444 kts | 63° |
| 2026-05-05 17:49 | 45.37331 | 5.12902 | 37886 ft | 445 kts | 63° |
| 2026-05-05 17:50 | 45.40241 | 5.20674 | 37892 ft | 445 kts | 64° |
| 2026-05-05 17:50 | 45.43145 | 5.28451 | 37890 ft | 445 kts | 64° |
| 2026-05-05 17:51 | 45.46053 | 5.36254 | 37903 ft | 445 kts | 64° |
| 2026-05-05 17:51 | 45.49276 | 5.43789 | 37912 ft | 446 kts | 51° |
| 2026-05-05 17:52 | 45.53689 | 5.50006 | 37885 ft | 446 kts | 41° |
| 2026-05-05 17:52 | 45.58301 | 5.55874 | 37885 ft | 447 kts | 41° |
| 2026-05-05 17:53 | 45.62975 | 5.61846 | 37879 ft | 448 kts | 41° |
| 2026-05-05 17:53 | 45.67582 | 5.67760 | 37882 ft | 448 kts | 41° |
| 2026-05-05 17:54 | 45.72232 | 5.73745 | 37888 ft | 449 kts | 42° |
| 2026-05-05 17:54 | 45.76881 | 5.79726 | 37897 ft | 450 kts | 42° |
| 2026-05-05 17:55 | 45.81550 | 5.85734 | 37892 ft | 451 kts | 42° |
| 2026-05-05 17:55 | 45.86198 | 5.91720 | 37877 ft | 451 kts | 42° |
| 2026-05-05 17:56 | 45.90856 | 5.97738 | 37884 ft | 451 kts | 42° |
| 2026-05-05 17:56 | 45.95523 | 6.03776 | 37880 ft | 451 kts | 42° |
| 2026-05-05 17:57 | 46.00181 | 6.09814 | 37881 ft | 452 kts | 42° |
| 2026-05-05 17:57 | 46.04807 | 6.15832 | 37919 ft | 450 kts | 41° |
| 2026-05-05 17:58 | 46.09283 | 6.22112 | 37921 ft | 448 kts | 51° |
| 2026-05-05 17:58 | 46.12910 | 6.29392 | 37921 ft | 446 kts | 56° |
| 2026-05-05 17:59 | 46.16525 | 6.36808 | 37903 ft | 459 kts | 55° |
| 2026-05-05 17:59 | 46.20255 | 6.44447 | 37906 ft | 470 kts | 56° |
| 2026-05-05 18:00 | 46.24036 | 6.52217 | 37179 ft | 478 kts | 56° |
| 2026-05-05 18:00 | 46.25954 | 6.56174 | 36376 ft | 482 kts | 56° |
| 2026-05-05 18:00 | 46.27870 | 6.60143 | 35858 ft | 477 kts | 56° |
| 2026-05-05 18:00 | 46.29741 | 6.64029 | 35288 ft | 475 kts | 56° |
| 2026-05-05 18:01 | 46.31605 | 6.67903 | 34709 ft | 474 kts | 56° |
| 2026-05-05 18:01 | 46.33489 | 6.71817 | 34122 ft | 474 kts | 56° |
| 2026-05-05 18:01 | 46.35365 | 6.75722 | 33486 ft | 473 kts | 56° |
| 2026-05-05 18:01 | 46.37245 | 6.79633 | 32932 ft | 469 kts | 56° |
| 2026-05-05 18:02 | 46.39095 | 6.83486 | 32313 ft | 466 kts | 56° |
| 2026-05-05 18:02 | 46.40942 | 6.87334 | 31784 ft | 462 kts | 56° |
| 2026-05-05 18:02 | 46.42742 | 6.91089 | 31242 ft | 459 kts | 56° |
| 2026-05-05 18:02 | 46.44559 | 6.94891 | 30699 ft | 457 kts | 56° |
| 2026-05-05 18:03 | 46.46368 | 6.98687 | 30157 ft | 455 kts | 56° |
| 2026-05-05 18:03 | 46.48159 | 7.02453 | 29582 ft | 452 kts | 57° |
| 2026-05-05 18:03 | 46.49928 | 7.06178 | 29092 ft | 446 kts | 57° |
| 2026-05-05 18:03 | 46.51683 | 7.09873 | 28572 ft | 442 kts | 57° |
| 2026-05-05 18:04 | 46.53422 | 7.13533 | 28098 ft | 436 kts | 56° |
| 2026-05-05 18:04 | 46.55131 | 7.17137 | 27635 ft | 431 kts | 57° |
| 2026-05-05 18:04 | 46.56976 | 7.20544 | 27208 ft | 426 kts | 47° |
| 2026-05-05 18:04 | 46.59141 | 7.23361 | 26759 ft | 421 kts | 36° |
| 2026-05-05 18:05 | 46.61651 | 7.25615 | 26296 ft | 416 kts | 25° |
| 2026-05-05 18:05 | 46.64234 | 7.27345 | 25849 ft | 413 kts | 23° |
| 2026-05-05 18:05 | 46.66832 | 7.29079 | 25369 ft | 410 kts | 24° |
| 2026-05-05 18:05 | 46.69415 | 7.30819 | 24896 ft | 408 kts | 24° |
| 2026-05-05 18:06 | 46.71987 | 7.32559 | 24391 ft | 405 kts | 24° |
| 2026-05-05 18:06 | 46.72850 | 7.33144 | 24231 ft | 404 kts | 24° |
| 2026-05-05 18:06 | 46.77083 | 7.36017 | 23413 ft | 401 kts | 24° |
| 2026-05-05 18:06 | 46.79579 | 7.37714 | 22887 ft | 398 kts | 24° |
| 2026-05-05 18:07 | 46.82076 | 7.39413 | 22415 ft | 394 kts | 25° |
| 2026-05-05 18:07 | 46.84425 | 7.41436 | 21948 ft | 391 kts | 36° |
| 2026-05-05 18:07 | 46.86433 | 7.44069 | 21606 ft | 384 kts | 49° |
| 2026-05-05 18:07 | 46.88106 | 7.47058 | 21334 ft | 375 kts | 52° |
| 2026-05-05 18:08 | 46.89721 | 7.50020 | 21049 ft | 369 kts | 52° |
| 2026-05-05 18:08 | 46.91321 | 7.52947 | 20788 ft | 366 kts | 52° |
| 2026-05-05 18:08 | 46.92887 | 7.55815 | 20511 ft | 365 kts | 52° |
| 2026-05-05 18:08 | 46.94464 | 7.58717 | 20233 ft | 363 kts | 52° |
| 2026-05-05 18:09 | 46.96032 | 7.61613 | 19941 ft | 361 kts | 52° |
| 2026-05-05 18:09 | 46.97587 | 7.64490 | 19667 ft | 360 kts | 52° |
| 2026-05-05 18:09 | 46.99135 | 7.67361 | 19386 ft | 359 kts | 52° |
| 2026-05-05 18:09 | 47.00679 | 7.70223 | 19114 ft | 358 kts | 52° |
| 2026-05-05 18:10 | 47.01705 | 7.72123 | 18928 ft | 357 kts | 52° |
| 2026-05-05 18:10 | 47.03241 | 7.74967 | 18656 ft | 355 kts | 52° |
| 2026-05-05 18:10 | 47.04767 | 7.77799 | 18381 ft | 354 kts | 52° |
| 2026-05-05 18:10 | 47.06291 | 7.80632 | 18096 ft | 353 kts | 52° |
| 2026-05-05 18:11 | 47.07816 | 7.83467 | 17812 ft | 351 kts | 52° |
| 2026-05-05 18:11 | 47.09327 | 7.86277 | 17544 ft | 350 kts | 52° |
| 2026-05-05 18:11 | 47.10830 | 7.89070 | 17277 ft | 349 kts | 52° |
| 2026-05-05 18:11 | 47.12313 | 7.91830 | 17001 ft | 347 kts | 52° |
| 2026-05-05 18:12 | 47.13694 | 7.94697 | 16731 ft | 346 kts | 62° |
| 2026-05-05 18:12 | 47.14756 | 7.97855 | 16474 ft | 344 kts | 66° |
| 2026-05-05 18:12 | 47.15772 | 8.01024 | 16206 ft | 343 kts | 66° |
| 2026-05-05 18:12 | 47.16783 | 8.04193 | 15938 ft | 342 kts | 66° |
| 2026-05-05 18:13 | 47.17790 | 8.07350 | 15670 ft | 341 kts | 66° |
| 2026-05-05 18:13 | 47.18797 | 8.10508 | 15405 ft | 340 kts | 66° |
| 2026-05-05 18:13 | 47.19792 | 8.13645 | 15106 ft | 339 kts | 66° |
| 2026-05-05 18:13 | 47.20797 | 8.16789 | 14811 ft | 338 kts | 63° |
| 2026-05-05 18:14 | 47.22223 | 8.19497 | 14518 ft | 336 kts | 38° |
| 2026-05-05 18:14 | 47.24210 | 8.21109 | 14266 ft | 330 kts | 13° |
| 2026-05-05 18:14 | 47.26445 | 8.21532 | 13944 ft | 324 kts | 357° |
| 2026-05-05 18:14 | 47.28707 | 8.21788 | 13488 ft | 328 kts | 3° |
| 2026-05-05 18:15 | 47.30979 | 8.22201 | 13014 ft | 330 kts | 4° |
| 2026-05-05 18:15 | 47.33260 | 8.22632 | 12617 ft | 329 kts | 4° |
| 2026-05-05 18:15 | 47.35525 | 8.23066 | 12155 ft | 328 kts | 4° |
| 2026-05-05 18:15 | 47.37779 | 8.23501 | 11707 ft | 328 kts | 4° |
| 2026-05-05 18:16 | 47.40046 | 8.23935 | 11279 ft | 328 kts | 4° |
| 2026-05-05 18:16 | 47.42310 | 8.24371 | 10853 ft | 327 kts | 4° |
| 2026-05-05 18:16 | 47.44556 | 8.24813 | 10436 ft | 325 kts | 4° |
| 2026-05-05 18:16 | 47.46785 | 8.25246 | 10127 ft | 320 kts | 2° |
| 2026-05-05 18:17 | 47.48949 | 8.25097 | 9862 ft | 305 kts | 340° |
| 2026-05-05 18:17 | 47.50931 | 8.24131 | 9590 ft | 297 kts | 334° |
| 2026-05-05 18:17 | 47.52859 | 8.23079 | 9295 ft | 292 kts | 334° |
| 2026-05-05 18:17 | 47.54745 | 8.22043 | 9001 ft | 286 kts | 333° |
| 2026-05-05 18:18 | 47.56581 | 8.21053 | 8715 ft | 277 kts | 333° |
| 2026-05-05 18:18 | 47.58350 | 8.20095 | 8428 ft | 269 kts | 334° |
| 2026-05-05 18:18 | 47.60169 | 8.19461 | 8145 ft | 274 kts | 355° |
| 2026-05-05 18:18 | 47.62028 | 8.20082 | 7823 ft | 278 kts | 25° |
| 2026-05-05 18:19 | 47.63515 | 8.21915 | 7427 ft | 282 kts | 54° |
| 2026-05-05 18:19 | 47.64274 | 8.24539 | 7029 ft | 278 kts | 84° |
| 2026-05-05 18:19 | 47.64150 | 8.27354 | 6638 ft | 272 kts | 109° |
| 2026-05-05 18:19 | 47.63591 | 8.29992 | 6259 ft | 272 kts | 113° |
| 2026-05-05 18:20 | 47.62941 | 8.32666 | 5678 ft | 276 kts | 118° |
| 2026-05-05 18:20 | 47.61817 | 8.34947 | 5097 ft | 270 kts | 141° |
| 2026-05-05 18:20 | 47.60522 | 8.36724 | 4737 ft | 255 kts | 142° |
| 2026-05-05 18:20 | 47.59260 | 8.38461 | 4405 ft | 241 kts | 141° |
| 2026-05-05 18:21 | 47.58055 | 8.40118 | 4084 ft | 230 kts | 141° |
| 2026-05-05 18:21 | 47.56926 | 8.41666 | 3798 ft | 219 kts | 141° |
| 2026-05-05 18:21 | 47.55840 | 8.43159 | 3525 ft | 199 kts | 141° |
| 2026-05-05 18:21 | 47.54898 | 8.44453 | 3257 ft | 179 kts | 141° |
| 2026-05-05 18:22 | 47.54029 | 8.45644 | 3027 ft | 162 kts | 141° |
| 2026-05-05 18:22 | 47.53242 | 8.46722 | 2837 ft | 148 kts | 141° |
| 2026-05-05 18:22 | 47.52505 | 8.47730 | 2634 ft | 142 kts | 141° |
| 2026-05-05 18:22 | 47.51788 | 8.48716 | 2442 ft | 140 kts | 140° |
| 2026-05-05 18:23 | 47.51076 | 8.49687 | 2237 ft | 138 kts | 140° |
| 2026-05-05 18:23 | 47.50372 | 8.50649 | 2015 ft | 137 kts | 140° |
| 2026-05-05 18:23 | 47.49669 | 8.51606 | 1835 ft | 136 kts | 140° |
| 2026-05-05 18:23 | 47.48978 | 8.52550 | 1671 ft | 134 kts | 140° |
| 2026-05-05 18:24 | 47.48291 | 8.53495 | 1487 ft | 133 kts | 139° |
| 2026-05-05 18:24 | 47.47642 | 8.54380 | 1400 ft | 116 kts | 138° |
| 2026-05-05 18:24 | 47.47177 | 8.55016 | 1385 ft | 66 kts | 137° |
| 2026-05-05 18:24 | 47.46881 | 8.55419 | 1395 ft | 52 kts | 137° |
| 2026-05-05 18:25 | 47.46646 | 8.55659 | 1399 ft | 35 kts | 163° |
| 2026-05-05 18:25 | 47.46515 | 8.55706 | 1397 ft | 24 kts | 167° |
| 2026-05-05 18:25 | 47.46357 | 8.55792 | 1402 ft | 11 kts | 141° |
| 2026-05-05 18:25 | 47.46302 | 8.55858 | 1401 ft | 9 kts | 134° |
| 2026-05-05 18:26 | 47.46269 | 8.55910 | 1407 ft | 5 kts | 134° |
| 2026-05-05 18:26 | 47.46250 | 8.55939 | 1407 ft | 2 kts | 134° |
| 2026-05-05 18:26 | 47.46245 | 8.55947 | 1403 ft | 2 kts | 135° |
| 2026-05-05 18:26 | 47.46218 | 8.55983 | 1405 ft | 9 kts | 137° |
| 2026-05-05 18:27 | 47.46138 | 8.55996 | 1407 ft | 16 kts | 187° |
| 2026-05-05 18:27 | 47.46012 | 8.55977 | 1406 ft | 20 kts | 186° |
| 2026-05-05 18:27 | 47.45893 | 8.55931 | 1412 ft | 16 kts | 200° |
| 2026-05-05 18:27 | 47.45802 | 8.55883 | 1410 ft | 17 kts | 196° |
| 2026-05-05 18:28 | 47.45663 | 8.55859 | 1408 ft | 2 kts | 186° |
| 2026-05-05 18:28 | 47.45622 | 8.55853 | 1409 ft | 7 kts | 186° |
| 2026-05-05 18:28 | 47.45576 | 8.55846 | 1409 ft | 5 kts | 186° |
| 2026-05-05 18:29 | 47.45571 | 8.55845 | 1408 ft | 1 kts | 186° |
| 2026-05-05 18:29 | 47.45565 | 8.55844 | 1408 ft | 1 kts | 186° |
| 2026-05-05 18:31 | 47.45564 | 8.55844 | 1408 ft | 1 kts | 186° |
| 2026-05-05 18:31 | 47.45550 | 8.55842 | 1408 ft | 0 kts | 186° |
| 2026-05-05 18:32 | 47.45546 | 8.55841 | 1408 ft | 4 kts | 186° |
| 2026-05-05 18:32 | 47.45499 | 8.55883 | 1407 ft | 12 kts | 102° |
| 2026-05-05 18:32 | 47.45491 | 8.55954 | 1410 ft | 6 kts | 115° |
| 2026-05-05 18:32 | 47.45446 | 8.55950 | 1407 ft | 9 kts | 188° |
| 2026-05-05 18:33 | 47.45411 | 8.55946 | 1407 ft | 3 kts | 185° |
| 2026-05-05 18:33 | 47.45410 | 8.55946 | 1407 ft | 0 kts | 185° |